Time;durP1;ratioP1;P1;durP2;ratioP2;P2;SDS_P1;SDS_P2;PMS_P1;PMS_P2;Temp;Humidity;BMP_temperature;BMP_pressure;BME280_temperature;BME280_humidity;BME280_pressure;Samples;Min_cycle;Max_cycle;Signal;HPM_P1;HPM_P2
2023/07/01 00:00:10;;;;;;;5.37;4.10;;;15.80;99.20;;;15.83;85.99;97448.25;4974074;28;21086;-80
2023/07/01 00:02:37;;;;;;;4.57;3.70;;;15.80;99.20;;;15.71;86.68;97450.38;4974287;28;21168;-80
2023/07/01 00:05:06;;;;;;;4.43;3.60;;;15.70;99.90;;;15.65;87.08;97443.25;4992201;28;20458;-79
2023/07/01 00:07:35;;;;;;;4.77;3.70;;;15.60;99.90;;;15.80;87.72;97453.44;4972259;28;20565;-81
2023/07/01 00:10:03;;;;;;;6.47;3.93;;;15.60;99.90;;;15.58;87.59;97448.91;4975380;28;20477;-81
2023/07/01 00:12:30;;;;;;;4.90;3.87;;;15.50;99.90;;;15.38;88.58;97444.97;4990278;28;21027;-80
2023/07/01 00:14:57;;;;;;;6.30;4.83;;;15.40;99.90;;;15.40;88.86;97444.72;4992481;28;20969;-79
2023/07/01 00:17:25;;;;;;;6.03;5.40;;;15.30;99.90;;;15.27;89.05;97429.66;4990291;28;20467;-81
2023/07/01 00:19:52;;;;;;;6.33;5.30;;;15.20;99.90;;;15.26;89.37;97453.34;4991738;28;20964;-80
2023/07/01 00:22:19;;;;;;;7.10;5.10;;;15.20;99.90;;;15.41;88.39;97457.25;4987690;28;20445;-80
2023/07/01 00:24:48;;;;;;;8.00;6.50;;;15.20;99.90;;;15.17;89.02;97421.44;4991758;28;20451;-80
2023/07/01 00:27:16;;;;;;;6.50;5.33;;;15.10;99.90;;;15.35;89.22;97450.13;4991140;28;20478;-82
2023/07/01 00:29:44;;;;;;;7.30;5.60;;;15.10;99.90;;;15.19;90.15;97436.38;5009808;28;20519;-81
2023/07/01 00:32:12;;;;;;;6.57;5.37;;;15.00;99.90;;;15.09;90.07;97439.00;4985666;28;20545;-80
2023/07/01 00:34:40;;;;;;;6.10;4.90;;;15.00;99.90;;;15.18;89.79;97461.97;4994697;28;20558;-81
2023/07/01 00:37:07;;;;;;;5.27;4.00;;;15.00;99.90;;;15.14;90.04;97444.50;4988755;28;20513;-81
2023/07/01 00:39:34;;;;;;;6.60;4.73;;;15.00;99.90;;;15.08;90.40;97445.53;4973288;28;20548;-79
2023/07/01 00:42:04;;;;;;;5.53;3.93;;;15.00;99.90;;;14.90;91.35;97450.28;4976733;28;20466;-79
2023/07/01 00:44:31;;;;;;;4.80;4.00;;;14.90;99.90;;;14.74;92.76;97452.03;4988695;28;21020;-79
2023/07/01 00:46:58;;;;;;;5.37;4.80;;;14.80;99.90;;;14.77;92.95;97443.38;4971757;28;20465;-80
2023/07/01 00:49:26;;;;;;;6.00;4.40;;;14.70;99.90;;;14.70;93.46;97446.25;4991969;28;20544;-80
2023/07/01 00:51:54;;;;;;;5.00;4.50;;;14.70;99.90;;;14.80;92.86;97440.13;4990242;28;20801;-80
2023/07/01 00:54:24;;;;;;;4.53;3.70;;;14.70;99.90;;;14.61;92.98;97419.78;4976714;28;20564;-80
2023/07/01 00:56:52;;;;;;;5.07;4.00;;;14.60;99.90;;;14.73;93.47;97439.53;4987906;28;21016;-80
2023/07/01 00:59:21;;;;;;;7.10;4.77;;;14.60;99.90;;;14.66;93.49;97434.25;4991846;28;20449;-79
2023/07/01 01:01:53;;;;;;;6.57;4.30;;;14.60;99.90;;;14.28;93.60;97368.09;4973227;28;20552;-79
2023/07/01 01:04:29;;;;;;;5.37;4.87;;;14.60;99.90;;;14.95;92.50;97433.19;4973613;28;20966;-79
2023/07/01 01:07:02;;;;;;;5.87;4.60;;;14.60;99.90;;;14.75;93.29;97439.25;4989901;28;20475;-80
2023/07/01 01:09:37;;;;;;;5.67;5.03;;;14.60;99.90;;;14.10;92.42;97334.75;4973206;28;20573;-80
2023/07/01 01:12:10;;;;;;;4.73;4.23;;;14.60;99.90;;;14.85;92.19;97442.88;4967713;28;20446;-81
2023/07/01 01:14:41;;;;;;;5.00;4.50;;;14.60;99.90;;;14.85;92.76;97447.53;4981011;28;20481;-80
2023/07/01 01:17:15;;;;;;;5.57;4.60;;;14.60;99.90;;;14.83;92.84;97444.25;4981234;28;20490;-82
2023/07/01 01:19:48;;;;;;;6.33;4.70;;;14.60;99.90;;;14.87;92.76;97434.47;4971575;28;20579;-80
2023/07/01 01:22:22;;;;;;;5.47;4.37;;;14.50;99.90;;;14.91;92.91;97437.50;4987120;28;20467;-79
2023/07/01 01:24:55;;;;;;;6.73;4.97;;;14.50;99.90;;;14.86;93.43;97443.72;4983050;28;20530;-82
2023/07/01 01:27:27;;;;;;;4.70;4.20;;;14.50;99.90;;;14.81;94.49;97440.97;4985156;28;20962;-81
2023/07/01 01:29:56;;;;;;;6.07;4.53;;;14.60;99.90;;;14.88;94.09;97438.84;4990038;28;20613;-81
2023/07/01 01:32:23;;;;;;;5.23;4.73;;;14.60;99.90;;;14.91;94.73;97430.16;4967049;28;20450;-81
2023/07/01 01:34:51;;;;;;;5.07;4.50;;;14.70;99.90;;;14.89;94.74;97426.88;4966208;28;20484;-80
2023/07/01 01:37:28;;;;;;;5.47;4.57;;;14.70;99.90;;;15.05;94.75;97441.44;4991069;28;20460;-81
2023/07/01 01:40:09;;;;;;;5.03;3.93;;;14.80;99.90;;;14.89;94.22;97405.13;4995416;28;20480;-80
2023/07/01 01:42:38;;;;;;;5.97;4.70;;;14.90;99.90;;;14.64;92.25;97315.97;4989741;28;20462;-80
2023/07/01 01:45:09;;;;;;;4.77;4.20;;;15.10;99.90;;;15.35;90.60;97407.41;4989321;28;20457;-79
2023/07/01 01:47:37;;;;;;;6.20;4.60;;;15.20;99.90;;;15.47;90.01;97420.81;4983105;28;20465;-79
2023/07/01 01:50:09;;;;;;;5.00;4.47;;;15.20;99.90;;;15.48;90.30;97427.09;4988128;28;20916;-80
2023/07/01 01:52:39;;;;;;;6.77;4.80;;;15.20;99.90;;;15.61;89.23;97420.34;4969943;28;20473;-79
2023/07/01 01:55:09;;;;;;;4.77;4.27;;;15.30;99.90;;;15.64;88.32;97415.22;4982435;28;20559;-80
2023/07/01 01:57:37;;;;;;;4.67;4.03;;;15.40;99.90;;;15.74;88.58;97414.44;4982042;28;20533;-80
2023/07/01 02:00:08;;;;;;;5.57;4.37;;;15.40;99.90;;;15.75;88.86;97410.63;4965131;28;21018;-81
2023/07/01 02:02:36;;;;;;;6.80;4.87;;;15.40;99.90;;;15.80;88.30;97409.84;4981905;28;21386;-82
2023/07/01 02:05:03;;;;;;;5.30;4.00;;;15.50;99.90;;;15.82;87.52;97408.47;4968483;28;20517;-80
2023/07/01 02:07:31;;;;;;;4.63;3.80;;;15.50;99.90;;;15.86;87.51;97412.34;4981838;28;20454;-82
2023/07/01 02:09:58;;;;;;;5.33;4.43;;;15.50;99.90;;;15.91;87.90;97405.31;4975772;28;20459;-80
2023/07/01 02:12:26;;;;;;;4.80;4.17;;;15.60;99.90;;;15.80;87.31;97380.69;4982172;28;20462;-81
2023/07/01 02:14:54;;;;;;;4.50;3.80;;;15.60;99.90;;;16.00;87.42;97398.28;4973336;28;20499;-81
2023/07/01 02:17:22;;;;;;;5.50;4.27;;;15.60;99.90;;;16.00;87.35;97392.81;4981581;28;20467;-80
2023/07/01 02:19:50;;;;;;;9.83;4.20;;;15.70;99.90;;;15.84;86.80;97365.47;4988072;28;20477;-81
2023/07/01 02:22:17;;;;;;;4.70;3.83;;;15.70;99.90;;;15.99;87.12;97404.78;4967731;28;20451;-81
2023/07/01 02:24:45;;;;;;;4.80;4.30;;;15.70;99.90;;;15.95;87.43;97392.78;4985149;28;20478;-79
2023/07/01 02:27:12;;;;;;;4.50;4.10;;;15.60;99.90;;;16.03;86.94;97397.72;4979865;28;20945;-78
2023/07/01 02:29:39;;;;;;;4.97;4.33;;;15.70;99.90;;;16.15;86.76;97402.94;4980548;28;20472;-80
2023/07/01 02:32:08;;;;;;;5.73;4.37;;;15.80;99.90;;;16.14;86.50;97407.56;4966942;28;20463;-80
2023/07/01 02:34:37;;;;;;;5.23;4.07;;;15.80;99.90;;;16.20;85.63;97402.16;4988714;28;20480;-82
2023/07/01 02:37:04;;;;;;;5.07;3.87;;;15.80;99.90;;;16.24;84.64;97408.69;4986417;28;20472;-80
2023/07/01 02:39:32;;;;;;;5.23;4.10;;;15.90;99.90;;;16.41;84.29;97409.28;4987382;28;20837;-81
2023/07/01 02:41:59;;;;;;;4.60;4.13;;;16.00;99.20;;;16.48;83.62;97398.13;4981075;28;20477;-81
2023/07/01 02:44:26;;;;;;;5.33;4.20;;;16.10;98.40;;;16.54;83.33;97407.16;4971392;28;20476;-80
2023/07/01 02:46:54;;;;;;;6.87;5.00;;;16.20;97.40;;;16.63;82.79;97408.28;4983418;28;20457;-79
2023/07/01 02:49:21;;;;;;;3.67;3.30;;;16.30;97.10;;;16.61;82.94;97396.81;4983791;28;20461;-79
2023/07/01 02:51:50;;;;;;;5.43;4.07;;;16.40;96.90;;;16.11;84.37;97333.72;4985300;28;20462;-78
2023/07/01 02:54:17;;;;;;;5.67;4.07;;;16.40;97.60;;;16.42;84.44;97405.47;4970605;28;20475;-78
2023/07/01 02:56:44;;;;;;;5.17;3.60;;;16.30;97.40;;;16.52;84.19;97404.69;4983856;28;20462;-77
2023/07/01 02:59:12;;;;;;;6.93;5.07;;;16.20;98.00;;;16.56;84.16;97407.69;4970123;28;20461;-78
2023/07/01 03:01:39;;;;;;;5.40;4.70;;;16.30;98.70;;;16.17;85.49;97365.34;4984975;28;21041;-77
2023/07/01 03:04:07;;;;;;;5.30;4.10;;;16.40;98.80;;;16.41;86.55;97412.03;4987453;28;20459;-77
2023/07/01 03:06:37;;;;;;;3.87;3.40;;;16.30;99.50;;;16.36;87.08;97403.00;4967525;28;20459;-77
2023/07/01 03:09:07;;;;;;;6.63;5.33;;;16.30;99.60;;;16.46;87.46;97410.41;4992070;28;20462;-78
2023/07/01 03:11:35;;;;;;;6.07;4.90;;;16.30;99.90;;;16.39;87.10;97397.84;4981640;28;20476;-79
2023/07/01 03:14:03;;;;;;;4.93;3.97;;;16.30;99.90;;;16.56;85.19;97402.25;4987397;28;21149;-78
2023/07/01 03:16:31;;;;;;;4.13;3.73;;;16.40;98.40;;;16.59;85.04;97418.06;4993159;28;20457;-78
2023/07/01 03:18:59;;;;;;;4.63;4.03;;;16.40;98.10;;;16.64;85.15;97411.81;5005001;28;20435;-78
2023/07/01 03:21:26;;;;;;;6.20;4.70;;;16.40;99.00;;;16.82;84.23;97416.72;4994560;28;20497;-78
2023/07/01 03:23:55;;;;;;;4.97;4.30;;;16.40;99.50;;;16.83;83.64;97412.09;4984860;28;20453;-79
2023/07/01 03:26:23;;;;;;;5.00;4.07;;;16.50;97.90;;;16.77;81.89;97416.72;4981007;28;20473;-79
2023/07/01 03:28:52;;;;;;;6.70;4.20;;;16.60;96.20;;;16.34;82.44;97340.59;4985286;28;20459;-79
2023/07/01 03:31:19;;;;;;;4.40;4.00;;;16.60;96.10;;;16.82;81.90;97411.28;4981839;28;20539;-79
2023/07/01 03:33:47;;;;;;;4.53;4.13;;;16.60;95.60;;;16.82;80.24;97413.19;4970837;28;20858;-78
2023/07/01 03:36:14;;;;;;;4.30;3.73;;;16.60;94.50;;;17.05;80.60;97413.78;4988717;28;20475;-78
2023/07/01 03:38:41;;;;;;;5.90;3.90;;;16.70;94.60;;;16.96;81.93;97411.56;4971330;28;20867;-79
2023/07/01 03:41:09;;;;;;;5.47;4.17;;;16.80;95.50;;;17.03;82.16;97405.06;4967354;28;20497;-78
2023/07/01 03:43:38;;;;;;;4.57;3.63;;;16.80;95.70;;;16.99;81.38;97394.69;4984361;28;20475;-77
2023/07/01 03:46:05;;;;;;;4.23;3.80;;;16.80;95.30;;;16.98;81.28;97373.09;4971504;28;20475;-77
2023/07/01 03:48:32;;;;;;;5.30;4.17;;;16.80;95.70;;;17.04;79.38;97396.59;4973946;28;20473;-79
2023/07/01 03:51:00;;;;;;;4.70;4.10;;;16.80;94.30;;;17.00;78.14;97395.53;4990221;28;20530;-79
2023/07/01 03:53:27;;;;;;;5.77;4.30;;;16.80;93.00;;;17.03;80.33;97399.59;4990070;28;20458;-79
2023/07/01 03:55:54;;;;;;;4.93;3.77;;;16.80;94.40;;;17.04;80.00;97404.78;4989623;28;20466;-78
2023/07/01 03:58:24;;;;;;;4.57;3.63;;;16.80;94.40;;;16.91;80.34;97386.19;4975414;28;20458;-80
2023/07/01 04:00:53;;;;;;;4.97;3.63;;;16.80;94.40;;;17.11;80.43;97385.41;4988357;28;21023;-79
2023/07/01 04:03:23;;;;;;;4.53;4.03;;;16.90;95.00;;;17.17;82.24;97389.75;4987970;28;20869;-78
2023/07/01 04:05:52;;;;;;;5.13;4.43;;;17.00;96.00;;;17.04;82.51;97401.22;4982971;28;20526;-79
2023/07/01 04:08:19;;;;;;;5.73;5.07;;;16.90;95.80;;;16.63;84.00;97358.34;4985398;28;20439;-77
2023/07/01 04:10:46;;;;;;;6.47;4.77;;;16.90;96.60;;;16.81;84.78;97389.75;4991657;28;20463;-78
2023/07/01 04:13:14;;;;;;;5.23;4.20;;;16.90;97.30;;;17.05;84.32;97386.50;4987982;28;20517;-78
2023/07/01 04:15:41;;;;;;;6.27;4.63;;;16.90;97.50;;;17.40;82.04;97385.66;4969620;28;20473;-78
2023/07/01 04:18:11;;;;;;;5.10;4.60;;;17.20;96.10;;;17.00;81.56;97313.66;4988182;28;20459;-77
2023/07/01 04:20:40;;;;;;;5.60;4.27;;;17.20;95.40;;;17.25;80.73;97331.06;4988476;28;20522;-78
2023/07/01 04:23:07;;;;;;;6.07;4.70;;;17.40;94.50;;;17.74;79.55;97397.03;4988644;28;21035;-78
2023/07/01 04:25:34;;;;;;;5.83;4.90;;;17.60;93.60;;;17.90;78.36;97385.00;4968967;28;20458;-79
2023/07/01 04:28:02;;;;;;;5.50;4.40;;;17.80;92.60;;;17.95;78.17;97379.50;4969250;28;20487;-80
2023/07/01 04:30:30;;;;;;;6.17;4.70;;;17.90;92.30;;;18.19;77.04;97389.00;4988783;28;20522;-77
2023/07/01 04:32:58;;;;;;;5.90;4.37;;;18.20;91.70;;;18.51;75.79;97376.78;4989186;28;20462;-79
2023/07/01 04:35:26;;;;;;;4.90;4.33;;;18.70;90.70;;;18.73;74.39;97372.81;4967372;28;20479;-79
2023/07/01 04:37:53;;;;;;;6.73;5.00;;;19.10;90.00;;;18.73;73.56;97376.38;4986947;28;20510;-78
2023/07/01 04:40:21;;;;;;;8.60;4.90;;;19.20;89.30;;;18.87;73.53;97382.00;4986483;28;20494;-79
2023/07/01 04:42:50;;;;;;;7.27;5.60;;;19.20;89.10;;;19.24;71.96;97377.91;4983959;28;20459;-79
2023/07/01 04:45:18;;;;;;;5.33;4.07;;;19.40;88.40;;;19.44;70.72;97367.06;4990172;28;20456;-79
2023/07/01 04:47:47;;;;;;;5.20;4.67;;;19.70;87.60;;;19.86;68.65;97368.22;4974370;28;20483;-78
2023/07/01 04:50:14;;;;;;;5.17;4.60;;;20.10;86.30;;;20.31;67.49;97380.84;4992598;28;20441;-77
2023/07/01 04:52:43;;;;;;;7.40;5.10;;;20.50;85.50;;;20.22;67.58;97384.28;4983688;28;20452;-78
2023/07/01 04:55:11;;;;;;;4.93;4.43;;;20.80;85.00;;;20.25;67.04;97371.91;4990997;28;20562;-79
2023/07/01 04:57:38;;;;;;;7.33;5.03;;;21.00;84.10;;;20.46;66.26;97347.72;4973821;28;20472;-78
2023/07/01 05:00:10;;;;;;;5.40;4.90;;;21.20;83.80;;;21.54;62.77;97382.81;4968960;28;20482;-80
2023/07/01 05:02:37;;;;;;;5.60;4.00;;;21.90;82.30;;;21.75;61.00;97382.47;4987488;28;20551;-81
2023/07/01 05:05:06;;;;;;;5.90;5.10;;;22.10;81.00;;;20.95;63.32;97391.50;4991974;28;20795;-82
2023/07/01 05:07:34;;;;;;;6.07;4.53;;;21.40;81.60;;;20.05;66.48;97387.50;4988947;28;20462;-80
2023/07/01 05:10:05;;;;;;;6.10;5.03;;;20.50;83.00;;;19.52;68.26;97372.72;4969450;28;20467;-79
2023/07/01 05:12:32;;;;;;;6.00;5.00;;;19.80;84.40;;;19.46;67.68;97368.38;4970644;28;20455;-80
2023/07/01 05:14:59;;;;;;;5.00;4.50;;;19.50;85.00;;;19.52;69.26;97389.16;5003322;28;20478;-80
2023/07/01 05:17:27;;;;;;;5.50;4.67;;;19.40;86.30;;;20.21;65.12;97388.13;4974518;28;20462;-81
2023/07/01 05:19:54;;;;;;;5.90;5.13;;;19.80;85.30;;;21.23;62.03;97399.84;4995331;28;20487;-81
2023/07/01 05:22:23;;;;;;;5.50;4.90;;;20.70;83.30;;;22.87;56.39;97405.16;4991197;28;20463;-80
2023/07/01 05:24:51;;;;;;;4.13;3.73;;;22.10;80.10;;;23.42;55.17;97397.78;4991704;28;20475;-80
2023/07/01 05:27:27;;;;;;;4.97;4.40;;;23.40;77.50;;;23.57;53.56;97395.75;4991179;28;20490;-80
2023/07/01 05:29:54;;;;;;;6.43;4.83;;;24.30;73.90;;;24.03;52.11;97382.69;4982831;28;20464;-77
2023/07/01 05:32:22;;;;;;;6.27;4.43;;;24.30;72.30;;;25.05;49.70;97393.69;4970128;28;20518;-76
2023/07/01 05:34:49;;;;;;;5.03;4.30;;;24.70;71.30;;;23.95;52.55;97381.50;4956060;28;20559;-76
2023/07/01 05:37:17;;;;;;;5.87;4.90;;;24.60;70.50;;;23.55;53.30;97390.56;4984931;28;20466;-79
2023/07/01 05:39:44;;;;;;;6.00;4.40;;;24.70;69.70;;;24.64;50.30;97345.25;4989456;28;20491;-79
2023/07/01 05:42:12;;;;;;;6.50;5.23;;;24.80;69.90;;;24.22;51.90;97385.19;4976499;28;20461;-79
2023/07/01 05:44:41;;;;;;;5.17;4.40;;;24.80;69.10;;;24.92;49.75;97383.63;4968816;28;20460;-78
2023/07/01 05:47:08;;;;;;;6.70;5.03;;;25.10;68.40;;;24.77;49.96;97371.13;4978808;28;20465;-77
2023/07/01 05:49:36;;;;;;;6.47;4.80;;;25.20;67.80;;;23.79;52.70;97374.78;4987653;28;21073;-79
2023/07/01 05:52:04;;;;;;;5.83;5.10;;;24.40;69.00;;;24.10;52.42;97390.50;4990106;28;20536;-80
2023/07/01 05:54:31;;;;;;;6.93;5.87;;;24.40;69.10;;;23.98;52.40;97396.59;4983032;28;20489;-79
2023/07/01 05:56:59;;;;;;;8.00;6.53;;;24.30;68.90;;;23.92;52.30;97393.97;4966088;28;20546;-83
2023/07/01 05:59:26;;;;;;;7.10;6.10;;;24.10;69.10;;;23.49;53.62;97381.63;4972330;28;20448;-83
2023/07/01 06:01:57;;;;;;;7.97;6.27;;;24.00;69.30;;;24.59;51.19;97382.16;4967963;28;20458;-83
2023/07/01 06:04:25;;;;;;;7.80;6.47;;;24.90;69.10;;;24.84;50.06;97376.97;4966066;28;20523;-82
2023/07/01 06:06:52;;;;;;;7.20;5.33;;;25.40;68.10;;;25.55;48.37;97386.00;4985213;28;20538;-77
2023/07/01 06:09:19;;;;;;;7.80;5.43;;;26.10;65.80;;;25.74;47.47;97386.44;4989301;28;20450;-78
2023/07/01 06:11:47;;;;;;;6.00;5.40;;;26.10;65.30;;;25.00;48.83;97380.06;4977929;28;20445;-79
2023/07/01 06:14:15;;;;;;;10.07;6.07;;;25.90;64.50;;;25.38;48.51;97384.06;4983491;28;20462;-80
2023/07/01 06:16:42;;;;;;;7.03;5.10;;;25.80;65.10;;;24.88;49.24;97377.97;4988937;28;20579;-78
2023/07/01 06:19:10;;;;;;;9.90;6.67;;;25.60;64.70;;;24.70;49.35;97371.59;4988691;28;20531;-77
2023/07/01 06:21:37;;;;;;;6.70;5.37;;;25.40;64.50;;;24.36;49.55;97378.72;4983396;28;20467;-77
2023/07/01 06:24:06;;;;;;;7.30;6.10;;;25.40;64.00;;;24.64;48.85;97370.09;4971471;28;20456;-77
2023/07/01 06:26:33;;;;;;;8.50;6.13;;;25.10;64.30;;;24.47;50.14;97377.25;4982190;28;20471;-78
2023/07/01 06:29:00;;;;;;;7.63;5.73;;;25.20;65.20;;;25.02;47.95;97375.03;4984812;28;20460;-77
2023/07/01 06:31:28;;;;;;;6.63;5.90;;;25.50;63.50;;;23.76;48.70;97384.50;4960864;28;20456;-78
2023/07/01 06:33:56;;;;;;;6.77;5.23;;;24.90;61.70;;;22.78;51.33;97384.97;4986073;28;20463;-82
2023/07/01 06:36:25;;;;;;;9.13;6.10;;;23.80;62.70;;;21.99;53.84;97379.50;4973508;28;20604;-77
2023/07/01 06:38:52;;;;;;;8.20;5.93;;;22.90;64.50;;;21.78;54.45;97382.66;4986230;28;20456;-83
2023/07/01 06:41:21;;;;;;;5.90;5.00;;;22.20;65.90;;;21.11;55.39;97392.06;4975132;28;20470;-79
2023/07/01 06:43:48;;;;;;;7.07;5.00;;;21.60;66.30;;;20.80;56.70;97376.91;4983180;28;20508;-80
2023/07/01 06:46:16;;;;;;;6.03;4.67;;;21.20;67.70;;;20.83;56.66;97371.94;4958708;28;20539;-80
2023/07/01 06:48:43;;;;;;;5.53;4.70;;;21.10;68.20;;;20.66;55.59;97370.50;4974764;28;20455;-79
2023/07/01 06:51:10;;;;;;;5.77;4.40;;;21.00;67.10;;;20.88;56.60;97369.94;4958793;28;20473;-81
2023/07/01 06:53:41;;;;;;;6.47;5.03;;;21.00;68.30;;;20.93;54.76;97371.78;4977543;28;20476;-86
2023/07/01 06:56:08;;;;;;;5.23;4.03;;;21.00;67.10;;;21.19;53.95;97361.19;4985208;28;20488;-81
2023/07/01 06:58:36;;;;;;;4.17;3.70;;;21.20;67.50;;;21.20;53.64;97367.47;4975126;28;20943;-86
2023/07/01 07:01:06;;;;;;;4.97;3.83;;;21.20;66.90;;;21.00;53.11;97368.63;4964480;28;20453;-82
2023/07/01 07:03:33;;;;;;;4.07;3.10;;;21.10;66.00;;;21.34;53.51;97359.28;4979935;28;20537;-82
2023/07/01 07:06:02;;;;;;;5.40;4.17;;;21.20;66.80;;;21.04;52.68;97361.44;4963872;28;21005;-84
2023/07/01 07:08:31;;;;;;;4.63;3.37;;;21.20;65.60;;;21.30;50.19;97360.97;4983170;28;20473;-81
2023/07/01 07:11:00;;;;;;;4.87;3.30;;;21.30;63.80;;;21.65;50.73;97361.44;4978668;28;20456;-84
2023/07/01 07:13:27;;;;;;;4.53;3.30;;;21.30;64.50;;;21.35;49.59;97303.22;4975006;28;20512;-81
2023/07/01 07:15:54;;;;;;;3.47;3.07;;;21.50;63.50;;;21.68;48.54;97363.63;4978011;28;20480;-79
2023/07/01 07:18:22;;;;;;;3.83;2.70;;;21.50;62.40;;;21.57;48.76;97359.41;4967163;28;20466;-82
2023/07/01 07:20:49;;;;;;;4.23;3.13;;;21.40;62.00;;;21.48;49.19;97354.63;4962618;28;20446;-81
2023/07/01 07:23:17;;;;;;;3.67;3.00;;;21.40;62.20;;;21.81;48.65;97358.44;4961940;28;21016;-82
2023/07/01 07:25:44;;;;;;;5.17;3.30;;;21.60;62.10;;;21.86;47.52;97347.31;4980378;28;20458;-81
2023/07/01 07:28:13;;;;;;;3.70;3.10;;;21.70;61.10;;;21.97;46.57;97346.00;4981172;28;20459;-81
2023/07/01 07:30:40;;;;;;;3.00;2.70;;;21.80;60.50;;;22.27;45.73;97349.22;4981736;28;20463;-81
2023/07/01 07:33:08;;;;;;;3.63;2.93;;;22.10;59.90;;;21.79;45.64;97332.06;4987957;28;20522;-81
2023/07/01 07:35:36;;;;;;;3.53;3.20;;;21.90;58.70;;;21.92;45.64;97329.63;4985665;28;20576;-81
2023/07/01 07:38:03;;;;;;;3.00;2.67;;;22.00;58.80;;;22.33;44.87;97338.91;4967832;28;20499;-82
2023/07/01 07:40:31;;;;;;;2.33;2.13;;;22.10;58.70;;;22.43;43.28;97340.63;4984499;28;20456;-81
2023/07/01 07:42:58;;;;;;;2.50;2.30;;;22.30;57.30;;;22.52;43.46;97343.47;4986153;28;20459;-77
2023/07/01 07:45:29;;;;;;;3.27;2.30;;;22.30;57.20;;;22.34;42.54;97341.34;4983544;28;20465;-81
2023/07/01 07:47:56;;;;;;;3.63;2.13;;;22.20;55.90;;;22.26;42.92;97339.34;4989882;28;20444;-83
2023/07/01 07:50:23;;;;;;;3.20;2.30;;;22.30;56.40;;;22.30;41.44;97339.53;4987661;28;20471;-78
2023/07/01 07:52:51;;;;;;;2.13;1.93;;;22.20;54.70;;;22.36;41.90;97358.34;4965814;28;20539;-77
2023/07/01 07:55:18;;;;;;;4.33;1.90;;;22.30;55.10;;;22.21;40.44;97343.00;4981367;28;20490;-77
2023/07/01 07:57:46;;;;;;;2.83;2.50;;;22.30;53.60;;;22.13;41.66;97313.47;4988844;28;21020;-77
2023/07/01 08:00:15;;;;;;;2.67;2.20;;;22.30;54.70;;;22.30;40.38;97351.34;4971591;28;20453;-78
2023/07/01 08:02:44;;;;;;;3.20;2.20;;;22.20;53.30;;;21.98;40.88;97298.13;4989435;28;20538;-77
2023/07/01 08:05:16;;;;;;;2.37;2.10;;;22.30;53.60;;;22.49;39.98;97340.22;4988274;28;20463;-76
2023/07/01 08:07:44;;;;;;;2.30;1.90;;;22.30;53.10;;;22.57;39.73;97338.69;4985913;28;20584;-77
2023/07/01 08:10:11;;;;;;;2.33;1.67;;;22.40;52.70;;;22.22;37.62;97346.59;4983997;28;20548;-76
2023/07/01 08:12:39;;;;;;;2.37;1.83;;;22.20;50.40;;;22.08;38.82;97332.84;4987286;28;20458;-77
2023/07/01 08:15:08;;;;;;;1.93;1.80;;;22.10;51.10;;;22.16;39.72;97326.63;4985832;28;20451;-76
2023/07/01 08:17:35;;;;;;;2.40;1.83;;;22.10;51.90;;;22.53;39.50;97334.94;4973342;28;20470;-77
2023/07/01 08:20:06;;;;;;;1.90;1.70;;;22.30;52.20;;;21.85;40.14;97330.03;4991598;28;20463;-78
2023/07/01 08:22:33;;;;;;;2.10;1.80;;;22.30;51.60;;;22.41;39.87;97327.16;4965975;28;20513;-79
2023/07/01 08:25:00;;;;;;;2.20;1.77;;;22.40;52.50;;;22.30;39.30;97332.09;4985682;28;20455;-78
2023/07/01 08:27:28;;;;;;;2.97;2.27;;;22.50;51.50;;;22.34;39.51;97326.78;4989313;28;20560;-78
2023/07/01 08:29:55;;;;;;;2.23;1.93;;;22.50;51.60;;;22.41;39.74;97326.38;4984777;28;21092;-79
2023/07/01 08:32:23;;;;;;;1.80;1.70;;;22.50;51.50;;;22.75;37.91;97323.13;4979021;28;20460;-78
2023/07/01 08:34:51;;;;;;;1.80;1.70;;;22.70;50.60;;;22.72;38.00;97320.16;4968082;28;20965;-79
2023/07/01 08:37:19;;;;;;;2.97;2.10;;;22.90;50.40;;;23.25;38.45;97313.06;4979373;28;20499;-79
2023/07/01 08:39:47;;;;;;;2.20;1.90;;;23.20;51.20;;;23.51;37.21;97314.34;4981556;28;20471;-80
2023/07/01 08:42:20;;;;;;;2.07;1.87;;;23.50;50.70;;;23.62;37.14;97301.91;4989317;28;20466;-79
2023/07/01 08:44:48;;;;;;;1.67;1.57;;;23.70;50.50;;;23.56;36.85;97303.16;4988463;28;20445;-79
2023/07/01 08:47:18;;;;;;;3.33;2.13;;;23.60;50.10;;;23.80;35.09;97301.94;4999776;28;20467;-81
2023/07/01 08:49:52;;;;;;;1.47;1.37;;;23.70;49.30;;;23.82;35.07;97300.50;4984983;28;20468;-80
2023/07/01 08:52:22;;;;;;;2.27;2.07;;;23.80;48.80;;;24.02;34.64;97292.75;4974187;28;20481;-79
2023/07/01 08:54:50;;;;;;;1.90;1.80;;;24.00;48.30;;;23.92;34.50;97288.34;5009830;28;20451;-80
2023/07/01 08:57:19;;;;;;;3.20;1.50;;;24.10;48.30;;;23.89;34.56;97264.19;5010915;28;20480;-80
2023/07/01 08:59:49;;;;;;;3.90;1.57;;;24.10;48.20;;;23.98;33.52;97283.50;4994528;28;20543;-78
2023/07/01 09:02:16;;;;;;;2.47;1.47;;;24.10;47.10;;;23.52;35.25;97280.13;4990090;28;20450;-79
2023/07/01 09:04:44;;;;;;;1.60;1.50;;;23.80;47.70;;;23.64;35.73;97283.09;4975853;28;20564;-85
2023/07/01 09:07:11;;;;;;;5.10;1.80;;;23.80;48.70;;;23.99;35.18;97285.91;4988713;28;20454;-86
2023/07/01 09:09:40;;;;;;;1.97;1.70;;;23.90;48.60;;;24.28;35.06;97269.94;4991703;28;20449;-86
2023/07/01 09:12:09;;;;;;;1.90;1.60;;;24.20;48.70;;;24.52;35.39;97277.72;4979357;28;21221;-84
2023/07/01 09:15:00;;;;;;;1.70;1.60;;;24.40;49.00;;;24.25;34.97;97263.09;4985320;28;20476;-87
2023/07/01 09:17:32;;;;;;;1.90;1.53;;;24.40;48.00;;;24.35;34.44;97264.72;4990642;28;20490;-83
2023/07/01 09:20:01;;;;;;;2.33;1.60;;;24.40;48.00;;;24.04;34.81;97271.19;4978840;28;21081;-83
2023/07/01 09:22:29;;;;;;;1.83;1.37;;;24.30;47.70;;;24.63;34.27;97275.44;4984288;28;20442;-83
2023/07/01 09:24:58;;;;;;;1.90;1.40;;;24.40;48.00;;;24.35;34.74;97277.72;4971825;28;20460;-83
2023/07/01 09:27:29;;;;;;;1.40;1.30;;;24.70;47.90;;;24.22;33.48;97261.00;4985339;28;20459;-83
2023/07/01 09:29:56;;;;;;;1.87;1.63;;;24.60;46.70;;;24.17;33.99;97272.19;4957165;28;20816;-83
2023/07/01 09:32:29;;;;;;;1.83;1.70;;;24.40;47.10;;;23.63;35.12;97242.88;4960747;28;20458;-83
2023/07/01 09:34:58;;;;;;;1.57;1.47;;;24.10;47.40;;;23.80;35.46;97268.84;4978543;28;20573;-83
2023/07/01 09:37:26;;;;;;;1.60;1.50;;;23.90;47.30;;;23.82;35.18;97241.75;4962113;28;20803;-86
2023/07/01 09:39:53;;;;;;;7.30;1.43;;;24.00;47.70;;;24.25;34.61;97254.81;4964375;28;20460;-76
2023/07/01 09:42:22;;;;;;;2.07;1.70;;;24.20;47.70;;;24.34;34.43;97263.09;4979048;28;20479;-80
2023/07/01 09:45:09;;;;;;;1.80;1.33;;;24.30;47.20;;;23.68;34.74;97244.66;4974634;28;20454;-84
2023/07/01 09:47:37;;;;;;;1.80;1.70;;;24.10;46.90;;;23.63;35.51;97256.66;4978418;28;20507;-83
2023/07/01 09:50:05;;;;;;;2.17;1.57;;;23.90;47.50;;;24.22;34.72;97255.47;4980722;28;20454;-86
2023/07/01 09:52:33;;;;;;;2.03;1.93;;;24.10;47.60;;;24.99;33.70;97252.16;4968081;28;20458;-82
2023/07/01 09:55:03;;;;;;;2.13;1.30;;;24.70;47.50;;;25.15;33.27;97249.69;4984057;28;20463;-87
2023/07/01 09:57:32;;;;;;;2.63;1.57;;;25.10;47.00;;;25.20;33.52;97247.88;4975376;28;20466;-81
2023/07/01 10:00:02;;;;;;;2.03;1.67;;;25.10;47.10;;;24.89;34.04;97245.03;4980575;28;20453;-88
2023/07/01 10:02:30;;;;;;;1.57;1.40;;;25.00;47.10;;;25.16;33.02;97245.78;4987395;28;20446;-89
2023/07/01 10:04:58;;;;;;;1.93;1.83;;;25.00;46.60;;;25.26;33.26;97239.06;4968092;28;20479;-85
2023/07/01 10:07:26;;;;;;;1.80;1.57;;;25.20;47.10;;;24.95;33.15;97217.25;4986936;28;20457;-84
2023/07/01 10:09:53;;;;;;;1.67;1.57;;;25.00;46.30;;;24.57;33.58;97225.09;4972813;28;20890;-82
2023/07/01 10:12:23;;;;;;;2.90;1.73;;;24.80;46.80;;;24.26;34.58;97228.84;4983157;28;20468;-82
2023/07/01 10:14:53;;;;;;;1.70;1.43;;;24.40;46.90;;;24.27;34.09;97244.28;4975906;28;20462;-83
2023/07/01 10:17:20;;;;;;;1.80;1.70;;;24.40;46.50;;;24.68;33.60;97235.81;4983154;28;20476;-83
2023/07/01 10:19:48;;;;;;;1.70;1.60;;;24.50;46.40;;;24.83;33.73;97227.03;4954590;28;20493;-81
2023/07/01 10:22:27;;;;;;;5.23;2.10;;;24.70;46.50;;;24.62;33.60;97227.66;4984126;28;20465;-81
2023/07/01 10:25:01;;;;;;;2.10;2.00;;;24.70;46.20;;;24.35;33.26;97211.50;4979101;28;20987;-80